createdAt,value
2022-08-21T00:03:44.248Z,100276.08
2022-08-21T00:08:50.078Z,100278.20
2022-08-21T00:13:56.639Z,100269.54
2022-08-21T00:19:02.045Z,100264.48
2022-08-21T00:24:08.278Z,100262.73
2022-08-21T00:29:14.469Z,100266.14
2022-08-21T00:34:20.168Z,100261.74
2022-08-21T00:39:25.854Z,100257.86
2022-08-21T00:44:32.059Z,100254.46
2022-08-21T00:49:38.402Z,100252.50
2022-08-21T00:54:46.310Z,100251.45
2022-08-21T00:59:59.353Z,100255.72
2022-08-21T01:05:06.035Z,100250.21
2022-08-21T01:10:20.579Z,100247.42
2022-08-21T01:15:37.643Z,100250.58
2022-08-21T01:20:46.743Z,100247.06
2022-08-21T01:25:52.336Z,100245.84
2022-08-21T01:30:59.336Z,100234.89
2022-08-21T01:36:05.656Z,100233.58
2022-08-21T01:41:11.716Z,100232.44
2022-08-21T01:46:18.635Z,100221.64
2022-08-21T01:51:23.983Z,100214.50
2022-08-21T01:56:29.792Z,100210.75
2022-08-21T02:01:35.513Z,100207.08
2022-08-21T02:06:41.357Z,100209.09
2022-08-21T02:11:47.040Z,100206.01
2022-08-21T02:16:52.573Z,100200.61
2022-08-21T02:22:12.134Z,100198.85
2022-08-21T02:27:17.562Z,100197.92
2022-08-21T02:32:30.310Z,100189.80
2022-08-21T02:37:43.064Z,100192.83
2022-08-21T02:42:48.873Z,100187.39
2022-08-21T02:47:57.460Z,100182.52
2022-08-21T02:53:04.020Z,100179.98
2022-08-21T02:58:09.824Z,100175.58
2022-08-21T03:03:15.568Z,100171.38
2022-08-21T03:08:21.372Z,100169.96
2022-08-21T03:13:30.172Z,100166.61
2022-08-21T03:18:36.761Z,100166.89
2022-08-21T03:23:44.110Z,100163.60
2022-08-21T03:28:49.899Z,100161.46
2022-08-21T03:33:56.369Z,100168.78
2022-08-21T03:39:01.785Z,100168.27
2022-08-21T03:44:07.118Z,100166.59
2022-08-21T03:49:13.282Z,100165.27
2022-08-21T03:54:19.176Z,100166.13
2022-08-21T03:59:25.188Z,100167.99
2022-08-21T04:04:31.311Z,100169.78
2022-08-21T04:09:37.156Z,100173.73
2022-08-21T04:14:42.887Z,100173.94
2022-08-21T04:19:53.659Z,100174.35
2022-08-21T04:24:59.447Z,100179.70
2022-08-21T04:30:06.850Z,100184.77
2022-08-21T04:35:13.761Z,100176.11
2022-08-21T04:40:20.957Z,100172.83
2022-08-21T04:45:28.020Z,100168.48
2022-08-21T04:50:40.356Z,100164.70
2022-08-21T04:55:47.257Z,100168.41
2022-08-21T05:00:55.266Z,100159.86
2022-08-21T05:06:00.995Z,100161.36
2022-08-21T05:11:07.428Z,100167.02
2022-08-21T05:16:12.999Z,100170.84
2022-08-21T05:21:18.571Z,100171.55
2022-08-21T05:26:24.173Z,100164.70
2022-08-21T05:31:29.797Z,100164.38
2022-08-21T05:36:35.323Z,100173.48
2022-08-21T05:41:41.223Z,100171.72
2022-08-21T05:46:46.769Z,100174.19
2022-08-21T05:51:52.278Z,100171.41
2022-08-21T05:56:57.951Z,100170.75
2022-08-21T06:02:05.857Z,100172.22
2022-08-21T06:07:12.385Z,100175.31
2022-08-21T06:12:18.155Z,100177.14
2022-08-21T06:17:24.596Z,100186.05
2022-08-21T06:22:30.317Z,100185.23
2022-08-21T06:27:35.859Z,100184.67
2022-08-21T06:32:41.436Z,100179.23
2022-08-21T06:37:46.779Z,100189.06
2022-08-21T06:42:52.281Z,100191.84
2022-08-21T06:47:57.795Z,100192.89
2022-08-21T06:53:11.828Z,100188.65
2022-08-21T06:58:18.120Z,100182.56
2022-08-21T07:03:28.122Z,100181.31
2022-08-21T07:08:33.681Z,100181.71
2022-08-21T07:13:39.055Z,100186.05
2022-08-21T07:18:44.929Z,100186.77
2022-08-21T07:23:52.431Z,100186.99
2022-08-21T07:28:58.237Z,100190.17
2022-08-21T07:34:03.910Z,100188.16
2022-08-21T07:39:09.338Z,100182.58
2022-08-21T07:44:14.820Z,100182.87
2022-08-21T07:49:20.131Z,100178.94
2022-08-21T07:54:33.525Z,100176.66
2022-08-21T07:59:40.086Z,100172.69
2022-08-21T08:04:51.087Z,100162.58
2022-08-21T08:09:57.608Z,100154.48
2022-08-21T08:15:23.299Z,100158.56
2022-08-21T08:20:30.031Z,100154.70
2022-08-21T08:25:36.900Z,100153.06
2022-08-21T08:30:43.482Z,100153.75
2022-08-21T08:35:52.102Z,100153.54
2022-08-21T08:41:12.953Z,100152.05
2022-08-21T08:46:24.054Z,100151.20
2022-08-21T08:51:40.979Z,100150.25
2022-08-21T08:56:47.715Z,100149.13
2022-08-21T09:01:53.255Z,100148.74
2022-08-21T09:07:13.697Z,100147.25
2022-08-21T09:12:26.991Z,100149.35
2022-08-21T09:17:56.127Z,100141.88
2022-08-21T09:23:11.296Z,100139.66
2022-08-21T09:28:16.961Z,100137.67
2022-08-21T09:33:22.486Z,100132.23
2022-08-21T09:38:32.797Z,100131.54
2022-08-21T09:43:39.970Z,100132.05
2022-08-21T09:48:48.908Z,100121.95
2022-08-21T09:53:59.285Z,100127.30
2022-08-21T09:59:16.311Z,100126.49
2022-08-21T10:04:29.496Z,100123.23
2022-08-21T10:09:35.116Z,100121.77
2022-08-21T10:14:51.840Z,100120.69
2022-08-21T10:20:07.920Z,100116.73
2022-08-21T10:25:20.735Z,100114.09
2022-08-21T10:30:37.342Z,100109.83
2022-08-21T10:35:51.013Z,100110.98
2022-08-21T10:41:07.218Z,100112.07
2022-08-21T10:46:21.038Z,100118.98
2022-08-21T10:51:36.762Z,100121.56
2022-08-21T10:56:44.197Z,100115.48
2022-08-21T11:01:57.107Z,100116.59
2022-08-21T11:07:17.253Z,100113.64
2022-08-21T11:12:28.898Z,100112.54
2022-08-21T11:17:38.052Z,100100.84
2022-08-21T11:22:59.989Z,100096.79
2022-08-21T11:28:16.466Z,100097.68
2022-08-21T11:33:35.989Z,100092.96
2022-08-21T11:38:43.525Z,100094.77
2022-08-21T11:43:54.845Z,100091.95
2022-08-21T11:49:17.725Z,100094.89
2022-08-21T11:54:30.819Z,100096.22
2022-08-21T11:59:43.896Z,100092.65
2022-08-21T12:04:53.249Z,100089.92
2022-08-21T12:10:00.159Z,100087.66
2022-08-21T12:15:29.805Z,100080.00
2022-08-21T12:20:58.666Z,100078.36
2022-08-21T12:26:19.463Z,100080.19
2022-08-21T12:31:27.418Z,100084.64
2022-08-21T12:36:46.420Z,100085.88
2022-08-21T12:42:01.659Z,100083.61
2022-08-21T12:47:14.987Z,100080.95
2022-08-21T12:52:24.265Z,100086.61
2022-08-21T12:57:31.315Z,100087.50
2022-08-21T13:02:43.689Z,100085.91
2022-08-21T13:07:50.139Z,100084.73
2022-08-21T13:12:59.513Z,100084.48
2022-08-21T13:18:07.729Z,100089.48
2022-08-21T13:23:24.931Z,100089.02
2022-08-21T13:28:38.725Z,100089.85
2022-08-21T13:33:45.000Z,100080.21
2022-08-21T13:38:53.925Z,100080.30
2022-08-21T13:44:02.259Z,100084.89
2022-08-21T13:49:09.691Z,100087.17
2022-08-21T13:54:25.791Z,100081.71
2022-08-21T13:59:33.484Z,100079.16
2022-08-21T14:04:53.264Z,100081.88
2022-08-21T14:10:03.556Z,100079.38
2022-08-21T14:15:14.322Z,100079.30
2022-08-21T14:20:34.422Z,100078.80
2022-08-21T14:25:44.730Z,100079.23
2022-08-21T14:30:51.537Z,100079.52
2022-08-21T14:36:01.856Z,100081.39
2022-08-21T14:41:16.756Z,100082.44
2022-08-21T14:46:25.806Z,100084.73
2022-08-21T14:51:31.290Z,100076.83
2022-08-21T14:56:37.524Z,100071.92
2022-08-21T15:01:43.388Z,100070.27
2022-08-21T15:06:49.013Z,100067.16
2022-08-21T15:11:57.405Z,100063.08
2022-08-21T15:17:04.690Z,100060.61
2022-08-21T15:22:15.442Z,100068.59
2022-08-21T15:27:24.758Z,100072.79
2022-08-21T15:32:31.725Z,100078.31
2022-08-21T15:37:37.607Z,100078.59
2022-08-21T15:42:43.915Z,100080.65
2022-08-21T15:47:51.513Z,100075.05
2022-08-21T15:52:57.107Z,100067.95
2022-08-21T15:58:06.057Z,100080.94
2022-08-21T16:03:17.490Z,100091.10
2022-08-21T16:08:23.165Z,100091.64
2022-08-21T16:13:34.630Z,100096.57
2022-08-21T16:18:40.764Z,100103.81
2022-08-21T16:23:46.592Z,100107.40
2022-08-21T16:28:57.137Z,100106.33
2022-08-21T16:34:01.657Z,100108.26
2022-08-21T16:39:07.334Z,100107.16
2022-08-21T16:44:12.871Z,100113.67
2022-08-21T16:49:18.342Z,100119.69
2022-08-21T16:54:24.148Z,100126.95
2022-08-21T16:59:29.666Z,100131.70
2022-08-21T17:04:35.167Z,100132.79
2022-08-21T17:09:40.587Z,100137.02
2022-08-21T17:14:46.743Z,100145.52
2022-08-21T17:19:52.308Z,100146.48
2022-08-21T17:24:58.174Z,100145.55
2022-08-21T17:30:05.898Z,100146.02
2022-08-21T17:35:12.869Z,100145.02
2022-08-21T17:40:20.316Z,100150.52
2022-08-21T17:45:26.159Z,100154.33
2022-08-21T17:50:31.728Z,100155.17
2022-08-21T17:55:41.607Z,100156.08
2022-08-21T18:00:52.693Z,100153.21
2022-08-21T18:06:03.220Z,100150.42
2022-08-21T18:11:09.055Z,100157.85
2022-08-21T18:16:19.655Z,100163.49
2022-08-21T18:21:25.614Z,100164.38
2022-08-21T18:26:34.930Z,100163.24
2022-08-21T18:31:43.641Z,100166.39
2022-08-21T18:36:49.432Z,100168.98
2022-08-21T18:41:56.011Z,100172.38
2022-08-21T18:47:04.771Z,100172.41
2022-08-21T18:52:10.414Z,100173.23
2022-08-21T18:57:29.315Z,100177.90
2022-08-21T19:02:34.852Z,100177.89
2022-08-21T19:07:40.732Z,100177.69
2022-08-21T19:12:47.477Z,100180.05
2022-08-21T19:17:54.496Z,100190.48
2022-08-21T19:23:01.055Z,100196.02
2022-08-21T19:28:11.186Z,100195.47
2022-08-21T19:33:23.644Z,100191.98
2022-08-21T19:38:30.007Z,100192.06
2022-08-21T19:43:42.620Z,100191.65
2022-08-21T19:48:46.926Z,100197.40
2022-08-21T19:53:57.537Z,100209.45
2022-08-21T19:59:07.550Z,100208.09
2022-08-21T20:04:19.573Z,100205.15
2022-08-21T20:09:25.367Z,100205.24
2022-08-21T20:14:32.955Z,100206.90
2022-08-21T20:19:41.284Z,100203.19
2022-08-21T20:24:46.826Z,100199.58
2022-08-21T20:29:52.906Z,100200.59
2022-08-21T20:34:59.082Z,100201.67
2022-08-21T20:40:10.271Z,100199.77
2022-08-21T20:45:20.498Z,100194.55
2022-08-21T20:50:28.855Z,100202.47
2022-08-21T20:55:37.397Z,100202.30
2022-08-21T21:00:44.512Z,100200.22
2022-08-21T21:05:57.543Z,100199.39
2022-08-21T21:11:07.343Z,100192.85
2022-08-21T21:16:17.710Z,100195.73
2022-08-21T21:21:33.124Z,100193.96
2022-08-21T21:26:48.830Z,100196.02
2022-08-21T21:31:55.800Z,100196.52
2022-08-21T21:37:06.898Z,100204.45
2022-08-21T21:42:29.818Z,100203.63
2022-08-21T21:47:47.512Z,100203.39
2022-08-21T21:53:12.795Z,100203.33
2022-08-21T21:58:43.912Z,100201.77
2022-08-21T22:03:59.298Z,100200.66
2022-08-21T22:09:18.134Z,100197.95
2022-08-21T22:14:29.863Z,100195.72
2022-08-21T22:19:41.182Z,100195.19
2022-08-21T22:24:49.689Z,100186.80
2022-08-21T22:29:58.376Z,100185.16
2022-08-21T22:35:16.095Z,100186.86
2022-08-21T22:40:26.514Z,100186.03
2022-08-21T22:45:37.939Z,100182.51
2022-08-21T22:50:54.101Z,100189.21
2022-08-21T22:56:02.153Z,100189.75
2022-08-21T23:01:16.867Z,100194.77
2022-08-21T23:06:29.586Z,100196.73
2022-08-21T23:11:40.623Z,100193.41
2022-08-21T23:16:56.011Z,100197.72
2022-08-21T23:22:17.322Z,100203.90
2022-08-21T23:27:32.589Z,100201.73
2022-08-21T23:33:07.411Z,100202.55
2022-08-21T23:38:23.007Z,100197.27
2022-08-21T23:43:44.414Z,100203.34
2022-08-21T23:55:34.403Z,100210.44
